AirNav   Everest Fuels
 
 1478 users online  

3NA7 J R Heliport
Kensal, North Dakota, USA

GOING TO KENSAL?


FAA INFORMATION EFFECTIVE 30 JANUARY 2020

Location

FAA Identifier: 3NA7
Lat/Long: 47-23-09.9870N 098-43-01.3730W
47-23.166450N 098-43.022883W
47.3861075,-98.7170481
(estimated)
Elevation: 1530 ft. / 466 m (estimated)
Variation: 08E (1985)
From city: 5 miles N of KENSAL, ND
Time zone: UTC -6 (UTC -5 during Daylight Saving Time)
Zip code: 58455

Heliport Operations

Heliport use: Private use. Permission required prior to landing
Activation date: 03/1985
Control tower: no
ARTCC: MINNEAPOLIS CENTER
FSS: GRAND FORKS FLIGHT SERVICE STATION
Attendance: UNATNDD
Wind indicator: yes
Segmented circle: no

Heliport Communications

WX AWOS-3 at 46D (18 nm W): 118.575 (701-652-1875)

Nearby radio navigation aids

VOR radial/distance  VOR name  Freq  Var
JMSr353/27.2JAMESTOWN VOR/DME114.5004E

Heliport Services

Runway Information

Helipad H1

Dimensions: 200 x 200 ft. / 61 x 61 m
Surface: turf
Traffic pattern: leftleft
Obstructions: 40 ft. barn

Heliport Ownership and Management from official FAA records

Ownership: Privately-owned
Owner: GERALD J. RYAN
RR 1 BOX 162
KENSAL, ND 58455
Phone 701-435-2247
Manager: GERLAD J. RYAN
5112 LAUREL DR A19
BILLINGS, MT 59101
Phone 701-435-2247

Heliport Operational Statistics

Aircraft based on the field: 3
Helicopters: 2
Ultralights: 1
    

Additional Remarks

FOR CD CTC MINNEAPOLIS ARTCC AT 651-463-5588.

Instrument Procedures

There are no published instrument procedures at 3NA7.

Some nearby airports with instrument procedures:

46D - Carrington Municipal Airport (18 nm W)
S32 - Cooperstown Municipal Airport (25 nm E)
KJMS - Jamestown Regional Airport (27 nm S)
KBAC - Barnes County Municipal Airport (39 nm SE)
5L0 - Lakota Municipal Airport (42 nm N)
 
Loc | Ops | Rwys | IFR | FBO | Links
Com | Nav | Svcs | Stats | Notes

Bismarck Aero Center
AirBoss

 
Area around 3NA7 (J R Heliport)
 
Road maps at: MapQuest Bing Google
 
Aerial photo
No photo
 
Sectional chart

 
Airport distance calculator
Flying to J R Heliport? Find the distance to fly.

From to 3NA7

Sunrise and sunset
Times for 24-Feb-2020
 Local
(UTC-6)
 Zulu
(UTC)
Morning civil twilight06:5412:54
Sunrise07:2513:25
Sunset18:1100:11
Evening civil twilight18:4200:42

Current date and time
Zulu (UTC)  24-Feb-2020 18:22:38
Local (UTC-6)  24-Feb-2020 12:22:38
 
METAR
K46D 
18nm W 
241755Z AUTO 03003KT 10SM CLR M01/M05 A3005 RMK AO2
KS32 
25nm E 
241755Z AUTO 00000KT 10SM CLR M03/M03 A3004 RMK AO2
KJMS 
27nm S 
241756Z AUTO 01003KT 10SM BKN090 M01/M05 A3002 RMK AO2 SLP188 T10061050 11006 21078 53010
TAF
KJMS 
27nm S 
241720Z 2418/2518 07007KT P6SM OVC090 FM250500 02012KT P6SM OVC015 FM251000 36012G20KT P6SM OVC009 FM251700 36013G21KT P6SM BKN014
NOTAMs
Click for the latest NOTAMs
NOTAMs are issued by the DoD/FAA and will open in a separate window not controlled by AirNav.

 

 
 

Would you like to see your business listed on this page?

 If your business provides an interesting product or service to pilots, flight crews, aircraft, or users of the J R Heliport, you should consider listing it here.  To start the listing process, click on the button below
 
Add a business
 

Other Pages about J R Heliport

Update a link
 
Copyright © AirNav, LLC. All rights reserved. Privacy Policy  Contact